Latest Weather Observations for Griffith

IDN60801

Issued at 8:04 am EDT Saturday 28 February 2015 (issued every 30 minutes, with the page automatically refreshed every 10 minutes)

About weather observations | Map of weather stations | Latest weather observations for NSW | Other Formats
Station Details ID: 075041 Name: GRIFFITH AIRPORT AWS Lat: -34.25 Lon: 146.07 Height: 134.0 m
Data from the previous 72 hours. | See also: Recent months at Griffith
Date/Time
EDT
Temp
°C
App
Temp
°C
Dew
Point
Rel
Hum
%
Delta-T
°C
Wind Press
QNH
hPa
Press
MSL
hPa
Rain
since 9 am
mm
Dir
 
Spd
km/h
Gust
km/h
Spd
kts
Gust
kts
28/08:00am 22.4 19.2 7.0 37 8.0 ESE 13 17 7 9 1007.6 1007.0 0.0
28/07:30am 22.4 21.2 6.6 36 8.1 N 2 9 1 5 1007.3 1006.7 0.0
28/07:00am 22.3 18.8 7.3 38 7.8 E 15 17 8 9 1006.9 1006.2 0.0
28/06:30am 21.8 18.1 8.0 41 7.3 E 17 19 9 10 1006.7 1006.0 0.0
28/06:00am 21.8 17.9 7.2 39 7.6 E 17 19 9 10 1006.5 1005.8 0.0
28/05:30am 22.7 18.4 5.2 32 8.8 ESE 17 17 9 9 1006.6 1005.9 0.0
28/05:00am 22.9 19.4 5.3 32 8.9 ESE 13 15 7 8 1006.8 1006.1 0.0
28/04:30am 22.8 19.7 5.7 33 8.7 ESE 11 13 6 7 1006.8 1006.1 0.0
28/04:00am 22.8 21.6 6.6 35 8.4 ESE 2 7 1 4 1007.1 1006.5 0.0
28/03:30am 24.5 21.3 5.3 29 9.8 SE 11 13 6 7 1007.5 1006.9 0.0
28/03:00am 23.8 20.9 6.6 33 8.9 SE 11 13 6 7 1007.2 1006.6 0.0
28/02:30am 24.5 21.6 6.3 31 9.4 SE 11 13 6 7 1007.3 1006.7 0.0
28/02:00am 24.5 21.9 6.3 31 9.5 SE 9 11 5 6 1007.7 1007.1 0.0
28/01:30am 25.2 22.3 6.4 30 9.8 SE 11 15 6 8 1007.7 1007.1 0.0
28/01:00am 23.7 23.1 7.3 35 8.6 CALM 0 7 0 4 1007.9 1007.3 0.0
28/12:30am 23.8 23.2 7.4 35 8.6 CALM 0 0 0 0 1008.1 1007.4 0.0
28/12:00am 26.5 24.3 6.0 27 10.7 SSE 7 11 4 6 1007.9 1007.3 0.0
 
Date/Time
EDT
Temp
°C
App
Temp
°C
Dew
Point
Rel
Hum
%
Delta-T
°C
Wind Press
QNH
hPa
Press
MSL
hPa
Rain
since 9 am
mm
Dir
 
Spd
km/h
Gust
km/h
Spd
kts
Gust
kts
27/11:30pm 27.4 23.7 6.2 26 11.2 SSE 15 22 8 12 1007.9 1007.3 0.0
27/11:00pm 27.5 23.7 5.7 25 11.4 SSE 15 19 8 10 1007.9 1007.3 0.0
27/10:30pm 28.0 24.5 5.6 24 11.7 SSE 13 17 7 9 1007.9 1007.3 0.0
27/10:00pm 27.9 24.6 6.6 26 11.3 SSE 13 17 7 9 1007.7 1007.1 0.0
27/09:30pm 27.9 24.8 7.2 27 11.1 SSE 13 15 7 8 1007.6 1007.0 0.0
27/09:00pm 28.2 25.5 7.4 27 11.2 SSE 11 15 6 8 1007.5 1006.9 0.0
27/08:30pm 28.7 26.1 7.9 27 11.3 SSE 11 15 6 8 1007.2 1006.6 0.0
27/08:00pm 29.5 27.1 6.8 24 12.2 S 9 13 5 7 1006.8 1006.1 0.0
27/07:30pm 30.8 28.0 5.3 20 13.5 SSW 9 11 5 6 1006.6 1005.9 0.0
27/07:00pm 32.4 29.0 4.2 17 14.8 SW 11 17 6 9 1006.3 1005.6 0.0
27/06:30pm 32.8 29.1 4.6 17 14.9 SSW 13 24 7 13 1006.1 1005.4 0.0
27/06:00pm 33.3 28.9 5.0 17 15.1 SW 17 24 9 13 1006.0 1005.3 0.0
27/05:30pm 33.1 29.8 4.8 17 15.0 SSW 11 19 6 10 1006.0 1005.3 0.0
27/05:00pm 33.1 29.6 5.6 18 14.8 WSW 13 19 7 10 1006.0 1005.3 0.0
27/04:30pm 33.4 30.4 5.9 18 14.9 SW 11 22 6 12 1006.2 1005.5 0.0
27/04:00pm 33.1 28.9 3.9 16 15.3 W 15 24 8 13 1006.6 1005.9 0.0
27/03:30pm 33.3 29.4 7.3 20 14.4 WNW 17 30 9 16 1006.8 1006.1 0.0
27/03:00pm 32.5 28.3 7.4 21 13.9 W 19 30 10 16 1007.3 1006.7 0.0
27/02:30pm 32.1 27.3 4.8 18 14.4 WSW 19 30 10 16 1007.7 1007.1 0.0
27/02:00pm 31.6 28.1 8.6 24 12.9 W 17 30 9 16 1008.2 1007.5 0.0
27/01:30pm 31.1 26.9 7.5 23 13.0 W 19 28 10 15 1008.5 1007.8 0.0
27/01:00pm 32.5 31.0 10.5 26 12.8 SW 9 24 5 13 1008.8 1008.1 0.0
27/12:30pm 31.0 27.6 9.3 26 12.3 SW 17 26 9 14 1009.2 1008.5 0.0
27/12:00pm 30.1 27.8 10.6 30 11.2 NNW 13 20 7 11 1009.6 1008.9 0.0
27/11:30am 29.4 28.0 11.0 32 10.6 NW 9 19 5 10 1009.9 1009.2 0.0
27/11:00am 28.6 27.3 11.2 34 10.0 NNW 9 15 5 8 1010.0 1009.3 0.0
27/10:30am 27.0 25.7 11.1 37 9.1 NW 9 13 5 7 1009.9 1009.2 0.0
27/10:00am 25.8 24.9 10.8 39 8.5 NNE 6 11 3 6 1009.9 1009.2 0.0
27/09:30am 24.3 23.6 11.3 44 7.3 E 6 11 3 6 1009.7 1009.0 0.0
27/09:00am 22.8 21.2 11.5 49 6.4 E 11 13 6 7 1009.6 1008.9 0.0
27/08:30am 22.4 21.3 10.5 47 6.6 ESE 7 11 4 6 1009.2 1008.5 0.0
27/08:00am 21.0 20.2 11.1 53 5.5 SE 6 11 3 6 1009.1 1008.4 0.0
27/07:30am 17.7 16.5 11.7 68 3.3 ENE 9 9 5 5 1008.7 1008.0 0.0
27/07:00am 17.0 16.5 10.8 67 3.3 NNW 4 6 2 3 1008.6 1007.9 0.0
27/06:30am 18.3 16.3 11.4 64 3.8 ESE 13 17 7 9 1008.2 1007.5 0.0
27/06:00am 17.7 17.0 11.3 66 3.5 SSE 6 7 3 4 1008.1 1007.4 0.0
27/05:30am 17.0 17.1 10.1 64 3.7 CALM 0 7 0 4 1007.8 1007.2 0.0
27/05:00am 17.7 17.8 10.1 61 4.1 CALM 0 0 0 0 1007.6 1007.0 0.0
27/04:30am 20.2 18.6 10.3 53 5.4 S 9 11 5 6 1007.6 1007.0 0.0
27/04:00am 20.1 18.0 11.3 57 4.9 SW 13 19 7 10 1007.8 1007.2 0.0
27/03:30am 18.8 16.7 9.6 55 4.9 ENE 11 13 6 7 1007.7 1007.1 0.0
27/03:00am 19.7 20.0 10.9 57 4.8 CALM 0 6 0 3 1007.7 1007.1 0.0
27/02:30am 21.0 18.9 9.6 48 6.1 E 11 13 6 7 1007.9 1007.3 0.0
27/02:00am 21.2 18.7 9.8 48 6.2 ESE 13 13 7 7 1008.1 1007.4 0.0
27/01:30am 21.2 19.1 9.8 48 6.2 ESE 11 13 6 7 1008.4 1007.7 0.0
27/01:00am 21.7 19.3 9.9 47 6.4 ESE 13 13 7 7 1008.6 1007.9 0.0
27/12:30am 22.2 20.0 9.4 44 6.9 ESE 11 15 6 8 1008.7 1008.0 0.0
27/12:00am 22.7 20.0 8.8 41 7.5 ESE 13 15 7 8 1008.7 1008.0 0.0
 
Date/Time
EDT
Temp
°C
App
Temp
°C
Dew
Point
Rel
Hum
%
Delta-T
°C
Wind Press
QNH
hPa
Press
MSL
hPa
Rain
since 9 am
mm
Dir
 
Spd
km/h
Gust
km/h
Spd
kts
Gust
kts
26/11:30pm 23.9 21.0 8.3 37 8.3 SE 13 17 7 9 1008.6 1007.9 0.0
26/11:00pm 26.2 23.1 8.7 33 9.6 SSE 15 22 8 12 1008.6 1007.9 0.0
26/10:30pm 26.3 22.9 7.8 31 9.9 SSE 15 20 8 11 1008.5 1007.8 0.0
26/10:00pm 26.7 23.2 7.2 29 10.4 SSE 15 20 8 11 1008.4 1007.7 0.0
26/09:30pm 27.1 24.1 7.5 29 10.5 SSE 13 19 7 10 1008.1 1007.4 0.0
26/09:00pm 27.3 24.1 6.7 27 11.0 SSE 13 19 7 10 1007.7 1007.1 0.0
26/08:30pm 27.8 24.7 7.1 27 11.1 S 13 19 7 10 1007.4 1006.8 0.0
26/08:00pm 28.7 24.7 6.7 25 11.8 S 17 20 9 11 1006.9 1006.2 0.0
26/07:30pm 29.8 25.2 5.8 22 12.7 SSW 19 24 10 13 1006.5 1005.8 0.0
26/07:00pm 30.4 26.0 7.6 24 12.5 SSW 20 26 11 14 1006.2 1005.5 0.0
26/06:30pm 30.7 26.1 6.6 22 13.0 SSW 20 30 11 16 1006.1 1005.4 0.0
26/06:00pm 31.4 27.1 7.1 22 13.3 S 19 30 10 16 1006.0 1005.3 0.0
26/05:30pm 30.8 26.4 4.5 19 13.7 S 17 30 9 16 1006.1 1005.4 0.0
26/05:00pm 31.0 28.0 6.1 21 13.4 SSW 11 19 6 10 1006.3 1005.6 0.0
26/04:30pm 31.0 26.5 6.1 21 13.3 SSW 19 28 10 15 1006.4 1005.7 0.0
26/04:00pm 30.6 26.2 6.5 22 13.0 SSW 19 30 10 16 1006.6 1005.9 0.0
26/03:30pm 30.0 25.5 6.0 22 12.8 SSW 19 32 10 17 1006.9 1006.2 0.0
26/03:00pm 30.0 27.3 7.2 24 12.4 SW 11 22 6 12 1007.2 1006.6 0.0
26/02:30pm 29.7 25.1 5.7 22 12.7 S 19 26 10 14 1007.5 1006.9 0.0
26/02:00pm 28.9 25.7 6.9 25 11.8 SW 13 20 7 11 1007.8 1007.2 0.0
26/01:30pm 28.7 24.5 5.5 23 12.2 SW 17 22 9 12 1008.2 1007.5 0.0
26/01:00pm 29.1 25.8 6.5 24 12.1 SSW 13 22 7 12 1008.3 1007.6 0.0
26/12:30pm 28.6 26.0 9.3 30 10.8 SW 13 22 7 12 1008.8 1008.1 0.0
26/12:00pm 27.9 24.7 10.1 33 10.1 WSW 17 26 9 14 1009.0 1008.3 0.0
26/11:30am 26.7 23.6 10.4 36 9.2 WSW 17 20 9 11 1009.2 1008.5 0.0
26/11:00am 25.8 23.4 10.0 37 8.8 WSW 13 20 7 11 1009.4 1008.7 0.0
26/10:30am 25.0 23.0 10.1 39 8.3 WSW 11 15 6 8 1009.2 1008.5 0.0
26/10:00am 22.5 20.5 10.3 46 6.7 WNW 11 17 6 9 1009.5 1008.8 0.0
26/09:30am 20.8 18.7 8.1 44 6.6 WNW 9 11 5 6 1009.4 1008.7 0.0
26/09:00am 20.2 18.5 8.5 47 6.2 WNW 7 7 4 4 1009.0 1008.3 0.0
26/08:30am 19.4 18.0 9.0 51 5.5 NNE 6 7 3 4 1008.5 1007.8 0.0
26/08:00am 18.1 17.9 8.9 55 4.8 CALM 0 0 0 0 1008.4 1007.7 0.0
26/07:30am 16.8 16.9 10.0 64 3.6 CALM 0 0 0 0 1008.4 1007.7 0.0
26/07:00am 15.9 15.7 8.9 63 3.6 CALM 0 0 0 0 1008.1 1007.4 0.0
26/06:30am 16.9 16.1 8.3 57 4.4 N 2 6 1 3 1008.1 1007.4 0.0
26/06:00am 16.4 14.3 8.4 59 4.1 NNE 9 11 5 6 1007.7 1007.1 0.0
26/05:30am 15.9 15.6 8.6 62 3.7 CALM 0 0 0 0 1007.9 1007.3 0.0
26/05:00am 15.9 15.5 8.2 60 3.9 CALM 0 0 0 0 1007.9 1007.3 0.0
26/04:30am 16.2 15.7 7.7 57 4.3 CALM 0 0 0 0 1007.7 1007.1 0.0
26/04:00am 16.0 14.7 7.5 57 4.3 NE 4 7 2 4 1008.3 1007.6 0.0
26/03:30am 16.6 16.0 7.5 55 4.6 CALM 0 0 0 0 1008.2 1007.5 0.0
26/03:00am 17.0 15.2 7.9 55 4.6 ESE 7 9 4 5 1008.4 1007.7 0.0
26/02:30am 16.4 14.3 8.4 59 4.1 E 9 11 5 6 1008.7 1008.0 0.0
26/02:00am 17.6 17.3 8.5 55 4.7 CALM 0 0 0 0 1008.9 1008.2 0.0
26/01:30am 18.7 17.2 9.2 54 5.0 SW 7 11 4 6 1009.1 1008.4 0.0
26/01:00am 18.4 17.6 9.7 57 4.6 NE 4 7 2 4 1009.2 1008.5 0.0
26/12:30am 19.4 18.1 9.9 54 5.1 ENE 7 9 4 5 1009.5 1008.8 0.0
26/12:00am 21.1 18.6 10.9 52 5.6 ESE 15 17 8 9 1009.7 1009.0 0.0
 
Date/Time
EDT
Temp
°C
App
Temp
°C
Dew
Point
Rel
Hum
%
Delta-T
°C
Wind Press
QNH
hPa
Press
MSL
hPa
Rain
since 9 am
mm
Dir
 
Spd
km/h
Gust
km/h
Spd
kts
Gust
kts
25/11:30pm 22.3 20.5 9.5 44 6.9 SE 9 13 5 7 1009.9 1009.2 0.0
25/11:00pm 20.7 17.3 5.9 38 7.4 ESE 13 19 7 10 1009.9 1009.2 0.0
25/10:30pm 19.9 19.1 6.3 41 6.8 CALM 0 2 0 1 1009.5 1008.8 0.0
25/10:18pm 20.7 19.1 6.3 39 7.3 W 4 7 2 4 1009.3 1008.6 0.0
25/10:00pm 20.5 19.4 5.3 37 7.5 CALM 0 0 0 0 1009.2 1008.5 0.0
25/09:54pm 20.7 19.8 5.9 38 7.4 CALM 0 0 0 0 1009.1 1008.4 0.0
25/09:30pm 22.8 20.8 6.1 34 8.5 WSW 6 7 3 4 1009.0 1008.3 0.0
25/09:00pm 23.4 21.1 4.9 30 9.3 WSW 6 7 3 4 1008.8 1008.1 0.0
25/08:30pm 25.6 22.6 4.1 25 10.8 SW 9 11 5 6 1008.7 1008.0 0.0
25/08:00pm 27.5 23.6 3.2 21 12.2 WSW 13 17 7 9 1008.4 1007.7 0.0
25/07:30pm 29.4 24.8 1.8 17 13.6 W 15 19 8 10 1008.4 1007.7 0.0
25/07:00pm 30.7 25.7 1.1 15 14.6 WSW 17 22 9 12 1008.3 1007.6 0.0
25/06:30pm 31.0 25.6 1.4 15 14.7 W 19 22 10 12 1008.2 1007.5 0.0
25/06:00pm 31.3 26.2 4.2 18 14.1 WSW 20 26 11 14 1008.4 1007.7 0.0
25/05:30pm 31.3 26.9 4.9 19 13.9 W 17 28 9 15 1008.3 1007.6 0.0
25/05:00pm 31.2 26.7 4.1 18 14.1 WSW 17 24 9 13 1008.4 1007.7 0.0
25/04:30pm 31.5 27.5 5.1 19 14.0 W 15 19 8 10 1008.9 1008.2 0.0
25/04:00pm 31.4 27.1 7.1 22 13.3 W 19 26 10 14 1009.4 1008.7 0.0
25/03:30pm 30.8 26.9 10.7 29 11.6 W 22 30 12 16 1009.8 1009.1 0.0
25/03:00pm 31.0 28.1 12.4 32 11.0 WNW 19 33 10 18 1010.2 1009.5 0.0
25/02:30pm 31.8 30.3 13.1 32 11.2 WNW 13 22 7 12 1010.4 1009.7 0.0
25/02:00pm 30.2 28.3 13.0 34 10.3 WNW 15 22 8 12 1010.8 1010.1 0.0
25/01:30pm 29.9 29.2 14.4 38 9.4 WNW 11 20 6 11 1011.3 1010.6 0.0
25/01:00pm 29.0 27.9 15.2 43 8.5 NW 15 26 8 14 1011.9 1011.2 0.0
25/12:30pm 28.9 27.2 14.7 42 8.7 N 17 26 9 14 1012.4 1011.7 0.0
25/12:00pm 27.7 26.6 15.4 47 7.5 N 15 20 8 11 1012.8 1012.1 0.0
25/11:30am 26.8 24.9 15.2 49 7.1 NNW 19 28 10 15 1013.1 1012.4 0.0
25/11:00am 27.8 26.6 16.1 49 7.3 N 17 28 9 15 1013.2 1012.5 0.0
25/10:30am 26.2 24.8 15.6 52 6.5 NNE 17 22 9 12 1013.2 1012.5 0.0
25/10:00am 25.0 23.9 15.3 55 5.9 NE 15 22 8 12 1013.3 1012.6 0.0
25/09:30am 23.7 21.7 14.9 57 5.3 NE 19 26 10 14 1013.4 1012.7 0.0
25/09:00am 22.7 20.5 14.8 61 4.7 E 20 24 11 13 1013.4 1012.7 0.0
25/08:30am 20.8 19.8 14.7 68 3.6 ESE 13 19 7 10 1013.3 1012.6 0.0

Other Formats:

Comma delimited format used in spreadsheet applications
http://www.bom.gov.au/fwo/IDN60801/IDN60801.95704.axf

JavaScript Object Notation format (JSON) in row-major order
http://www.bom.gov.au/fwo/IDN60801/IDN60801.95704.json